sensor_id;sensor_type;location;lat;lon;timestamp;pressure;altitude;pressure_sealevel;temperature;humidity
8051;BME280;4068;42.158;24.732;2024-02-23T00:01:36;99616.19;;;4.80;100.00
8051;BME280;4068;42.158;24.732;2024-02-23T00:04:01;99613.91;;;4.74;100.00
8051;BME280;4068;42.158;24.732;2024-02-23T00:06:28;99602.44;;;4.59;100.00
8051;BME280;4068;42.158;24.732;2024-02-23T00:08:54;99598.97;;;4.42;100.00
8051;BME280;4068;42.158;24.732;2024-02-23T00:11:23;99604.88;;;4.46;100.00
8051;BME280;4068;42.158;24.732;2024-02-23T00:13:49;99616.81;;;4.36;100.00
8051;BME280;4068;42.158;24.732;2024-02-23T00:16:14;99620.13;;;4.23;100.00
8051;BME280;4068;42.158;24.732;2024-02-23T00:18:40;99623.13;;;4.15;100.00
8051;BME280;4068;42.158;24.732;2024-02-23T00:21:05;99616.44;;;4.10;100.00
8051;BME280;4068;42.158;24.732;2024-02-23T00:23:31;99603.56;;;4.05;100.00
8051;BME280;4068;42.158;24.732;2024-02-23T00:25:56;99596.75;;;4.01;100.00
8051;BME280;4068;42.158;24.732;2024-02-23T00:28:22;99575.03;;;3.82;100.00
8051;BME280;4068;42.158;24.732;2024-02-23T00:30:47;99615.47;;;3.95;100.00
8051;BME280;4068;42.158;24.732;2024-02-23T00:33:13;99604.97;;;3.95;100.00
8051;BME280;4068;42.158;24.732;2024-02-23T00:35:39;99609.44;;;3.93;100.00
8051;BME280;4068;42.158;24.732;2024-02-23T00:38:04;99602.72;;;3.87;100.00
8051;BME280;4068;42.158;24.732;2024-02-23T00:40:30;99598.66;;;3.82;100.00
8051;BME280;4068;42.158;24.732;2024-02-23T00:42:55;99593.81;;;3.74;100.00
8051;BME280;4068;42.158;24.732;2024-02-23T00:45:21;99599.13;;;3.72;100.00
8051;BME280;4068;42.158;24.732;2024-02-23T00:47:47;99583.47;;;3.71;100.00
8051;BME280;4068;42.158;24.732;2024-02-23T00:50:13;99588.47;;;3.75;100.00
8051;BME280;4068;42.158;24.732;2024-02-23T00:52:39;99593.81;;;3.74;100.00
8051;BME280;4068;42.158;24.732;2024-02-23T00:55:06;99589.88;;;3.65;100.00
8051;BME280;4068;42.158;24.732;2024-02-23T00:57:33;99594.81;;;3.54;100.00
8051;BME280;4068;42.158;24.732;2024-02-23T00:59:59;99577.63;;;3.48;100.00
8051;BME280;4068;42.158;24.732;2024-02-23T01:02:24;99570.38;;;3.36;100.00
8051;BME280;4068;42.158;24.732;2024-02-23T01:04:50;99579.69;;;3.41;100.00
8051;BME280;4068;42.158;24.732;2024-02-23T01:07:15;99578.94;;;3.39;100.00
8051;BME280;4068;42.158;24.732;2024-02-23T01:09:41;99578.06;;;3.39;100.00
8051;BME280;4068;42.158;24.732;2024-02-23T01:12:06;99557.88;;;3.23;100.00
8051;BME280;4068;42.158;24.732;2024-02-23T01:14:32;99576.53;;;3.35;100.00
8051;BME280;4068;42.158;24.732;2024-02-23T01:16:57;99572.06;;;3.37;100.00
8051;BME280;4068;42.158;24.732;2024-02-23T01:19:23;99564.44;;;3.32;100.00
8051;BME280;4068;42.158;24.732;2024-02-23T01:21:49;99571.28;;;3.35;100.00
8051;BME280;4068;42.158;24.732;2024-02-23T01:24:21;99567.13;;;3.31;100.00
8051;BME280;4068;42.158;24.732;2024-02-23T01:26:47;99566.13;;;3.33;100.00
8051;BME280;4068;42.158;24.732;2024-02-23T01:29:12;99549.78;;;3.28;100.00
8051;BME280;4068;42.158;24.732;2024-02-23T01:31:38;99564.22;;;3.37;100.00
8051;BME280;4068;42.158;24.732;2024-02-23T01:34:03;99558.25;;;3.33;100.00
8051;BME280;4068;42.158;24.732;2024-02-23T01:36:29;99521.19;;;3.06;100.00
8051;BME280;4068;42.158;24.732;2024-02-23T01:38:54;99562.97;;;3.26;100.00
8051;BME280;4068;42.158;24.732;2024-02-23T01:41:20;99562.97;;;3.26;100.00
8051;BME280;4068;42.158;24.732;2024-02-23T01:43:45;99554.25;;;3.26;100.00
8051;BME280;4068;42.158;24.732;2024-02-23T01:46:11;99558.19;;;3.17;100.00
8051;BME280;4068;42.158;24.732;2024-02-23T01:48:39;99550.84;;;3.06;100.00
8051;BME280;4068;42.158;24.732;2024-02-23T01:51:05;99551.72;;;3.07;100.00
8051;BME280;4068;42.158;24.732;2024-02-23T01:53:30;99551.00;;;3.03;100.00
8051;BME280;4068;42.158;24.732;2024-02-23T01:55:57;99546.78;;;3.01;100.00
8051;BME280;4068;42.158;24.732;2024-02-23T01:58:22;99538.53;;;2.91;100.00
8051;BME280;4068;42.158;24.732;2024-02-23T02:00:49;99499.72;;;2.63;100.00
8051;BME280;4068;42.158;24.732;2024-02-23T02:03:14;99544.41;;;2.77;100.00
8051;BME280;4068;42.158;24.732;2024-02-23T02:05:40;99542.47;;;2.81;100.00
8051;BME280;4068;42.158;24.732;2024-02-23T02:08:06;99540.59;;;2.84;100.00
8051;BME280;4068;42.158;24.732;2024-02-23T02:10:32;99539.19;;;2.77;100.00
8051;BME280;4068;42.158;24.732;2024-02-23T02:13:05;99527.22;;;2.71;100.00
8051;BME280;4068;42.158;24.732;2024-02-23T02:15:31;99537.31;;;2.79;100.00
8051;BME280;4068;42.158;24.732;2024-02-23T02:17:56;99532.25;;;2.76;100.00
8051;BME280;4068;42.158;24.732;2024-02-23T02:20:24;99538.53;;;2.72;100.00
8051;BME280;4068;42.158;24.732;2024-02-23T02:22:51;99548.25;;;2.70;100.00
8051;BME280;4068;42.158;24.732;2024-02-23T02:25:16;99526.19;;;2.56;100.00
8051;BME280;4068;42.158;24.732;2024-02-23T02:27:42;99544.16;;;2.64;100.00
8051;BME280;4068;42.158;24.732;2024-02-23T02:30:11;99544.00;;;2.67;100.00
8051;BME280;4068;42.158;24.732;2024-02-23T02:32:37;99520.25;;;2.53;100.00
8051;BME280;4068;42.158;24.732;2024-02-23T02:35:02;99550.16;;;2.66;100.00
8051;BME280;4068;42.158;24.732;2024-02-23T02:37:28;99543.03;;;2.70;100.00
8051;BME280;4068;42.158;24.732;2024-02-23T02:39:53;99500.47;;;2.47;100.00
8051;BME280;4068;42.158;24.732;2024-02-23T02:42:19;99545.25;;;2.78;100.00
8051;BME280;4068;42.158;24.732;2024-02-23T02:44:44;99533.31;;;2.72;100.00
8051;BME280;4068;42.158;24.732;2024-02-23T02:47:10;99541.09;;;2.73;100.00
8051;BME280;4068;42.158;24.732;2024-02-23T02:49:35;99552.19;;;2.79;100.00
8051;BME280;4068;42.158;24.732;2024-02-23T02:52:01;99551.47;;;2.75;100.00
8051;BME280;4068;42.158;24.732;2024-02-23T02:54:27;99551.72;;;2.70;100.00
8051;BME280;4068;42.158;24.732;2024-02-23T02:56:52;99552.25;;;2.59;100.00
8051;BME280;4068;42.158;24.732;2024-02-23T02:59:20;99556.41;;;2.45;100.00
8051;BME280;4068;42.158;24.732;2024-02-23T03:01:45;99538.81;;;2.29;100.00
8051;BME280;4068;42.158;24.732;2024-02-23T03:04:12;99550.75;;;2.35;100.00
8051;BME280;4068;42.158;24.732;2024-02-23T03:06:37;99529.84;;;2.16;100.00
8051;BME280;4068;42.158;24.732;2024-02-23T03:09:03;99526.34;;;1.96;100.00
8051;BME280;4068;42.158;24.732;2024-02-23T03:11:28;99556.00;;;2.16;100.00
8051;BME280;4068;42.158;24.732;2024-02-23T03:13:54;99559.53;;;2.15;100.00
8051;BME280;4068;42.158;24.732;2024-02-23T03:16:20;99564.00;;;2.13;100.00
8051;BME280;4068;42.158;24.732;2024-02-23T03:18:48;99522.53;;;1.84;100.00
8051;BME280;4068;42.158;24.732;2024-02-23T03:21:15;99560.13;;;2.01;100.00
8051;BME280;4068;42.158;24.732;2024-02-23T03:23:41;99560.22;;;1.99;100.00
8051;BME280;4068;42.158;24.732;2024-02-23T03:26:07;99571.41;;;2.03;100.00
8051;BME280;4068;42.158;24.732;2024-02-23T03:28:33;99565.31;;;2.40;100.00
8051;BME280;4068;42.158;24.732;2024-02-23T03:30:59;99560.63;;;2.66;100.00
8051;BME280;4068;42.158;24.732;2024-02-23T03:33:25;99574.94;;;2.78;100.00
8051;BME280;4068;42.158;24.732;2024-02-23T03:35:51;99547.53;;;3.20;100.00
8051;BME280;4068;42.158;24.732;2024-02-23T03:38:16;99572.34;;;2.96;100.00
8051;BME280;4068;42.158;24.732;2024-02-23T03:40:42;99568.22;;;3.44;100.00
8051;BME280;4068;42.158;24.732;2024-02-23T03:43:07;99576.75;;;3.13;100.00
8051;BME280;4068;42.158;24.732;2024-02-23T03:45:33;99569.50;;;3.18;100.00
8051;BME280;4068;42.158;24.732;2024-02-23T03:47:59;99582.75;;;2.97;100.00
8051;BME280;4068;42.158;24.732;2024-02-23T03:50:25;99572.34;;;2.96;100.00
8051;BME280;4068;42.158;24.732;2024-02-23T03:52:50;99576.00;;;3.28;100.00
8051;BME280;4068;42.158;24.732;2024-02-23T03:55:16;99562.41;;;3.02;100.00
8051;BME280;4068;42.158;24.732;2024-02-23T03:57:42;99575.31;;;2.88;100.00
8051;BME280;4068;42.158;24.732;2024-02-23T04:00:07;99564.88;;;2.69;100.00
8051;BME280;4068;42.158;24.732;2024-02-23T04:02:34;99574.59;;;2.48;100.00
8051;BME280;4068;42.158;24.732;2024-02-23T04:05:01;99564.00;;;2.32;100.00
8051;BME280;4068;42.158;24.732;2024-02-23T04:07:26;99574.25;;;2.17;100.00
8051;BME280;4068;42.158;24.732;2024-02-23T04:09:52;99536.66;;;1.99;100.00
8051;BME280;4068;42.158;24.732;2024-02-23T04:12:20;99561.56;;;2.08;100.00
8051;BME280;4068;42.158;24.732;2024-02-23T04:14:46;99570.56;;;2.02;100.00
8051;BME280;4068;42.158;24.732;2024-02-23T04:17:12;99564.59;;;1.99;100.00
8051;BME280;4068;42.158;24.732;2024-02-23T04:19:37;99566.56;;;1.94;100.00
8051;BME280;4068;42.158;24.732;2024-02-23T04:22:05;99538.06;;;1.68;100.00
8051;BME280;4068;42.158;24.732;2024-02-23T04:24:31;99567.19;;;1.80;100.00
8051;BME280;4068;42.158;24.732;2024-02-23T04:26:56;99564.66;;;1.78;100.00
8051;BME280;4068;42.158;24.732;2024-02-23T04:29:22;99532.50;;;1.55;100.00
8051;BME280;4068;42.158;24.732;2024-02-23T04:31:47;99563.66;;;1.81;100.00
8051;BME280;4068;42.158;24.732;2024-02-23T04:34:15;99578.78;;;1.74;100.00
8051;BME280;4068;42.158;24.732;2024-02-23T04:36:41;99574.44;;;1.73;100.00
8051;BME280;4068;42.158;24.732;2024-02-23T04:39:07;99573.72;;;1.69;100.00
8051;BME280;4068;42.158;24.732;2024-02-23T04:41:32;99548.28;;;1.54;100.00
8051;BME280;4068;42.158;24.732;2024-02-23T04:43:58;99561.59;;;1.68;100.00
8051;BME280;4068;42.158;24.732;2024-02-23T04:46:25;99565.94;;;1.68;100.00
8051;BME280;4068;42.158;24.732;2024-02-23T04:48:51;99575.44;;;1.70;100.00
8051;BME280;4068;42.158;24.732;2024-02-23T04:51:16;99576.47;;;1.66;100.00
8051;BME280;4068;42.158;24.732;2024-02-23T04:53:42;99570.41;;;1.66;100.00
8051;BME280;4068;42.158;24.732;2024-02-23T04:56:07;99528.72;;;1.42;100.00
8051;BME280;4068;42.158;24.732;2024-02-23T04:58:33;99568.06;;;1.60;100.00
8051;BME280;4068;42.158;24.732;2024-02-23T05:00:58;99560.34;;;1.57;100.00
8051;BME280;4068;42.158;24.732;2024-02-23T05:03:24;99568.84;;;1.62;100.00
8051;BME280;4068;42.158;24.732;2024-02-23T05:05:49;99556.94;;;1.54;100.00
8051;BME280;4068;42.158;24.732;2024-02-23T05:08:19;99571.31;;;1.65;100.00
8051;BME280;4068;42.158;24.732;2024-02-23T05:10:46;99574.06;;;1.62;100.00
8051;BME280;4068;42.158;24.732;2024-02-23T05:13:12;99583.78;;;1.58;100.00
8051;BME280;4068;42.158;24.732;2024-02-23T05:15:37;99575.78;;;1.63;100.00
8051;BME280;4068;42.158;24.732;2024-02-23T05:18:03;99571.53;;;1.60;100.00
8051;BME280;4068;42.158;24.732;2024-02-23T05:20:29;99590.81;;;1.78;100.00
8051;BME280;4068;42.158;24.732;2024-02-23T05:22:55;99586.00;;;1.88;100.00
8051;BME280;4068;42.158;24.732;2024-02-23T05:25:20;99596.72;;;2.02;100.00
8051;BME280;4068;42.158;24.732;2024-02-23T05:27:46;99594.28;;;1.98;100.00
8051;BME280;4068;42.158;24.732;2024-02-23T05:30:12;99599.66;;;1.95;100.00
8051;BME280;4068;42.158;24.732;2024-02-23T05:32:38;99602.22;;;1.96;100.00
8051;BME280;4068;42.158;24.732;2024-02-23T05:35:04;99594.16;;;2.01;100.00
8051;BME280;4068;42.158;24.732;2024-02-23T05:37:29;99598.00;;;2.13;100.00
8051;BME280;4068;42.158;24.732;2024-02-23T05:39:55;99593.31;;;2.19;100.00
8051;BME280;4068;42.158;24.732;2024-02-23T05:42:20;99593.97;;;2.24;100.00
8051;BME280;4068;42.158;24.732;2024-02-23T05:44:46;99601.44;;;2.34;100.00
8051;BME280;4068;42.158;24.732;2024-02-23T05:47:13;99605.56;;;2.38;100.00
8051;BME280;4068;42.158;24.732;2024-02-23T05:49:39;99600.78;;;2.48;100.00
8051;BME280;4068;42.158;24.732;2024-02-23T05:52:05;99613.94;;;2.65;100.00
8051;BME280;4068;42.158;24.732;2024-02-23T05:54:30;99590.56;;;2.61;100.00
8051;BME280;4068;42.158;24.732;2024-02-23T05:56:56;99609.81;;;2.79;100.00
8051;BME280;4068;42.158;24.732;2024-02-23T05:59:22;99619.84;;;2.88;100.00
8051;BME280;4068;42.158;24.732;2024-02-23T06:01:47;99617.88;;;2.93;100.00
8051;BME280;4068;42.158;24.732;2024-02-23T06:04:13;99624.50;;;3.00;100.00
8051;BME280;4068;42.158;24.732;2024-02-23T06:06:42;99636.25;;;3.10;100.00
8051;BME280;4068;42.158;24.732;2024-02-23T06:09:10;99635.56;;;3.07;100.00
8051;BME280;4068;42.158;24.732;2024-02-23T06:11:36;99640.06;;;3.22;100.00
8051;BME280;4068;42.158;24.732;2024-02-23T06:14:01;99625.25;;;3.21;100.00
8051;BME280;4068;42.158;24.732;2024-02-23T06:16:28;99642.38;;;3.46;100.00
8051;BME280;4068;42.158;24.732;2024-02-23T06:18:53;99648.75;;;3.59;100.00
8051;BME280;4068;42.158;24.732;2024-02-23T06:21:19;99654.44;;;3.68;100.00
8051;BME280;4068;42.158;24.732;2024-02-23T06:23:44;99662.84;;;3.74;100.00
8051;BME280;4068;42.158;24.732;2024-02-23T06:26:10;99665.09;;;3.82;100.00
8051;BME280;4068;42.158;24.732;2024-02-23T06:28:37;99665.94;;;3.83;100.00
8051;BME280;4068;42.158;24.732;2024-02-23T06:31:05;99655.66;;;3.95;100.00
8051;BME280;4068;42.158;24.732;2024-02-23T06:33:31;99674.41;;;4.05;100.00
8051;BME280;4068;42.158;24.732;2024-02-23T06:35:57;99672.63;;;4.23;100.00
8051;BME280;4068;42.158;24.732;2024-02-23T06:38:22;99674.06;;;4.29;100.00
8051;BME280;4068;42.158;24.732;2024-02-23T06:40:48;99665.63;;;4.40;100.00
8051;BME280;4068;42.158;24.732;2024-02-23T06:43:13;99654.28;;;4.39;100.00
8051;BME280;4068;42.158;24.732;2024-02-23T06:45:39;99667.44;;;4.55;100.00
8051;BME280;4068;42.158;24.732;2024-02-23T06:48:05;99655.22;;;4.54;100.00
8051;BME280;4068;42.158;24.732;2024-02-23T06:50:30;99673.50;;;4.73;100.00
8051;BME280;4068;42.158;24.732;2024-02-23T06:52:56;99668.81;;;4.94;100.00
8051;BME280;4068;42.158;24.732;2024-02-23T06:55:21;99663.31;;;5.15;100.00
8051;BME280;4068;42.158;24.732;2024-02-23T06:57:47;99664.47;;;5.25;100.00
8051;BME280;4068;42.158;24.732;2024-02-23T07:00:13;99626.31;;;5.18;100.00
8051;BME280;4068;42.158;24.732;2024-02-23T07:02:39;99667.00;;;5.43;100.00
8051;BME280;4068;42.158;24.732;2024-02-23T07:05:04;99672.91;;;5.62;100.00
8051;BME280;4068;42.158;24.732;2024-02-23T07:07:32;99677.66;;;5.72;100.00
8051;BME280;4068;42.158;24.732;2024-02-23T07:10:01;99641.72;;;5.70;100.00
8051;BME280;4068;42.158;24.732;2024-02-23T07:12:27;99653.03;;;5.87;100.00
8051;BME280;4068;42.158;24.732;2024-02-23T07:14:54;99681.31;;;6.14;100.00
8051;BME280;4068;42.158;24.732;2024-02-23T07:17:20;99684.34;;;6.22;100.00
8051;BME280;4068;42.158;24.732;2024-02-23T07:19:45;99679.00;;;6.38;100.00
8051;BME280;4068;42.158;24.732;2024-02-23T07:22:11;99681.00;;;6.49;100.00
8051;BME280;4068;42.158;24.732;2024-02-23T07:24:41;99664.34;;;6.63;100.00
8051;BME280;4068;42.158;24.732;2024-02-23T07:27:06;99676.44;;;6.80;100.00
8051;BME280;4068;42.158;24.732;2024-02-23T07:29:32;99667.84;;;6.90;100.00
8051;BME280;4068;42.158;24.732;2024-02-23T07:31:57;99676.97;;;6.99;100.00
8051;BME280;4068;42.158;24.732;2024-02-23T07:34:23;99672.69;;;7.11;100.00
8051;BME280;4068;42.158;24.732;2024-02-23T07:36:52;99640.97;;;7.13;100.00
8051;BME280;4068;42.158;24.732;2024-02-23T07:39:17;99666.63;;;7.23;100.00
8051;BME280;4068;42.158;24.732;2024-02-23T07:41:43;99664.06;;;7.36;100.00
8051;BME280;4068;42.158;24.732;2024-02-23T07:44:09;99656.53;;;7.57;100.00
8051;BME280;4068;42.158;24.732;2024-02-23T07:46:34;99669.41;;;7.62;100.00
8051;BME280;4068;42.158;24.732;2024-02-23T07:48:59;99649.19;;;7.75;100.00
8051;BME280;4068;42.158;24.732;2024-02-23T07:51:25;99656.59;;;8.09;100.00
8051;BME280;4068;42.158;24.732;2024-02-23T07:53:50;99663.91;;;8.31;100.00
8051;BME280;4068;42.158;24.732;2024-02-23T07:56:16;99662.13;;;8.44;100.00
8051;BME280;4068;42.158;24.732;2024-02-23T07:58:42;99651.63;;;8.43;100.00
8051;BME280;4068;42.158;24.732;2024-02-23T08:01:07;99648.56;;;8.49;100.00
8051;BME280;4068;42.158;24.732;2024-02-23T08:03:33;99652.78;;;8.64;99.94
8051;BME280;4068;42.158;24.732;2024-02-23T08:05:58;99661.03;;;8.73;99.33
8051;BME280;4068;42.158;24.732;2024-02-23T08:08:24;99650.19;;;8.89;99.63
8051;BME280;4068;42.158;24.732;2024-02-23T08:10:51;99664.94;;;9.17;99.00
8051;BME280;4068;42.158;24.732;2024-02-23T08:13:17;99637.56;;;9.29;95.95
8051;BME280;4068;42.158;24.732;2024-02-23T08:15:43;99649.34;;;9.49;96.10
8051;BME280;4068;42.158;24.732;2024-02-23T08:18:09;99645.53;;;9.65;95.53
8051;BME280;4068;42.158;24.732;2024-02-23T08:20:35;99623.25;;;9.67;94.72
8051;BME280;4068;42.158;24.732;2024-02-23T08:23:01;99616.34;;;9.78;94.45
8051;BME280;4068;42.158;24.732;2024-02-23T08:25:27;99634.41;;;9.84;93.34
8051;BME280;4068;42.158;24.732;2024-02-23T08:27:56;99635.72;;;9.78;94.76
8051;BME280;4068;42.158;24.732;2024-02-23T08:30:22;99631.16;;;9.92;93.65
8051;BME280;4068;42.158;24.732;2024-02-23T08:32:47;99632.88;;;10.04;94.15
8051;BME280;4068;42.158;24.732;2024-02-23T08:35:13;99624.34;;;10.23;94.27
8051;BME280;4068;42.158;24.732;2024-02-23T08:37:40;99626.78;;;10.26;92.89
8051;BME280;4068;42.158;24.732;2024-02-23T08:40:07;99625.91;;;10.26;92.55
8051;BME280;4068;42.158;24.732;2024-02-23T08:42:33;99612.31;;;10.19;92.79
8051;BME280;4068;42.158;24.732;2024-02-23T08:44:59;99616.91;;;10.40;92.74
8051;BME280;4068;42.158;24.732;2024-02-23T08:47:24;99627.16;;;10.56;91.78
8051;BME280;4068;42.158;24.732;2024-02-23T08:49:53;99615.81;;;10.76;90.44
8051;BME280;4068;42.158;24.732;2024-02-23T08:52:18;99604.47;;;10.74;90.10
8051;BME280;4068;42.158;24.732;2024-02-23T08:54:44;99617.97;;;10.60;90.52
8051;BME280;4068;42.158;24.732;2024-02-23T08:57:10;99617.59;;;10.76;90.70
8051;BME280;4068;42.158;24.732;2024-02-23T08:59:35;99626.16;;;10.91;89.43
8051;BME280;4068;42.158;24.732;2024-02-23T09:02:01;99613.78;;;11.12;90.02
8051;BME280;4068;42.158;24.732;2024-02-23T09:04:26;99627.03;;;11.23;88.93
8051;BME280;4068;42.158;24.732;2024-02-23T09:06:52;99615.16;;;11.39;88.81
8051;BME280;4068;42.158;24.732;2024-02-23T09:09:18;99614.97;;;11.52;86.02
8051;BME280;4068;42.158;24.732;2024-02-23T09:11:43;99613.56;;;11.69;85.58
8051;BME280;4068;42.158;24.732;2024-02-23T09:14:09;99604.59;;;11.70;85.96
8051;BME280;4068;42.158;24.732;2024-02-23T09:16:34;99601.75;;;11.83;85.88
8051;BME280;4068;42.158;24.732;2024-02-23T09:19:00;99591.84;;;11.85;85.71
8051;BME280;4068;42.158;24.732;2024-02-23T09:21:25;99579.78;;;11.81;85.07
8051;BME280;4068;42.158;24.732;2024-02-23T09:23:51;99568.56;;;11.77;84.25
8051;BME280;4068;42.158;24.732;2024-02-23T09:26:16;99577.56;;;11.97;83.48
8051;BME280;4068;42.158;24.732;2024-02-23T09:28:43;99591.94;;;12.25;83.54
8051;BME280;4068;42.158;24.732;2024-02-23T09:31:10;99603.53;;;12.46;82.02
8051;BME280;4068;42.158;24.732;2024-02-23T09:33:36;99594.31;;;12.59;80.94
8051;BME280;4068;42.158;24.732;2024-02-23T09:36:02;99588.56;;;12.54;81.11
8051;BME280;4068;42.158;24.732;2024-02-23T09:38:27;99575.97;;;12.25;80.63
8051;BME280;4068;42.158;24.732;2024-02-23T09:40:53;99564.19;;;12.18;82.21
8051;BME280;4068;42.158;24.732;2024-02-23T09:43:21;99564.38;;;12.26;81.21
8051;BME280;4068;42.158;24.732;2024-02-23T09:45:53;99574.22;;;12.36;82.23
8051;BME280;4068;42.158;24.732;2024-02-23T09:48:19;99558.41;;;12.44;81.53
8051;BME280;4068;42.158;24.732;2024-02-23T09:50:47;99568.25;;;12.53;80.59
8051;BME280;4068;42.158;24.732;2024-02-23T09:53:13;99545.41;;;12.41;79.58
8051;BME280;4068;42.158;24.732;2024-02-23T09:55:39;99533.38;;;12.47;80.06
8051;BME280;4068;42.158;24.732;2024-02-23T09:58:06;99548.97;;;12.71;79.43
8051;BME280;4068;42.158;24.732;2024-02-23T10:00:34;99548.69;;;12.74;79.78
8051;BME280;4068;42.158;24.732;2024-02-23T10:03:02;99531.34;;;12.89;80.21
8051;BME280;4068;42.158;24.732;2024-02-23T10:05:30;99538.91;;;13.04;77.99
8051;BME280;4068;42.158;24.732;2024-02-23T10:07:59;99536.97;;;13.16;77.53
8051;BME280;4068;42.158;24.732;2024-02-23T10:10:33;99537.81;;;13.26;76.69
8051;BME280;4068;42.158;24.732;2024-02-23T10:12:59;99534.88;;;13.39;75.82
8051;BME280;4068;42.158;24.732;2024-02-23T10:15:25;99516.38;;;13.27;75.79
8051;BME280;4068;42.158;24.732;2024-02-23T10:17:51;99534.06;;;13.38;76.91
8051;BME280;4068;42.158;24.732;2024-02-23T10:20:19;99522.00;;;13.44;76.13
8051;BME280;4068;42.158;24.732;2024-02-23T10:22:45;99515.50;;;13.56;75.30
8051;BME280;4068;42.158;24.732;2024-02-23T10:25:10;99518.03;;;13.58;75.86
8051;BME280;4068;42.158;24.732;2024-02-23T10:27:36;99516.72;;;13.72;76.02
8051;BME280;4068;42.158;24.732;2024-02-23T10:30:02;99489.75;;;13.85;75.74
8051;BME280;4068;42.158;24.732;2024-02-23T10:32:29;99501.03;;;14.06;74.19
8051;BME280;4068;42.158;24.732;2024-02-23T10:35:00;99503.63;;;14.26;71.95
8051;BME280;4068;42.158;24.732;2024-02-23T10:37:29;99500.59;;;14.39;71.29
8051;BME280;4068;42.158;24.732;2024-02-23T10:39:57;99500.28;;;14.42;69.78
8051;BME280;4068;42.158;24.732;2024-02-23T10:42:24;99462.53;;;14.19;71.04
8051;BME280;4068;42.158;24.732;2024-02-23T10:44:53;99472.63;;;14.43;70.53
8051;BME280;4068;42.158;24.732;2024-02-23T10:47:21;99475.44;;;14.69;69.81
8051;BME280;4068;42.158;24.732;2024-02-23T10:49:48;99488.41;;;14.82;67.60
8051;BME280;4068;42.158;24.732;2024-02-23T10:52:13;99478.88;;;14.97;66.46
8051;BME280;4068;42.158;24.732;2024-02-23T10:54:40;99466.72;;;15.03;66.00
8051;BME280;4068;42.158;24.732;2024-02-23T10:57:07;99435.47;;;14.95;64.99
8051;BME280;4068;42.158;24.732;2024-02-23T10:59:33;99455.34;;;15.19;64.39
8051;BME280;4068;42.158;24.732;2024-02-23T11:01:59;99425.31;;;14.99;64.29
8051;BME280;4068;42.158;24.732;2024-02-23T11:04:26;99433.75;;;15.12;63.94
8051;BME280;4068;42.158;24.732;2024-02-23T11:06:55;99461.06;;;15.24;64.69
8051;BME280;4068;42.158;24.732;2024-02-23T11:09:24;99448.66;;;15.15;63.58
8051;BME280;4068;42.158;24.732;2024-02-23T11:11:57;99432.56;;;15.07;62.65
8051;BME280;4068;42.158;24.732;2024-02-23T11:14:35;99452.38;;;15.22;62.40
8051;BME280;4068;42.158;24.732;2024-02-23T11:17:02;99428.69;;;15.27;61.95
8051;BME280;4068;42.158;24.732;2024-02-23T11:19:35;99443.38;;;15.49;60.88
8051;BME280;4068;42.158;24.732;2024-02-23T11:22:02;99442.06;;;15.62;60.22
8051;BME280;4068;42.158;24.732;2024-02-23T11:24:29;99437.13;;;15.41;59.75
8051;BME280;4068;42.158;24.732;2024-02-23T11:26:59;99412.31;;;15.22;60.51
8051;BME280;4068;42.158;24.732;2024-02-23T11:29:29;99429.63;;;15.44;60.90
8051;BME280;4068;42.158;24.732;2024-02-23T11:31:55;99427.88;;;15.61;59.53
8051;BME280;4068;42.158;24.732;2024-02-23T11:34:27;99421.50;;;15.54;59.48
8051;BME280;4068;42.158;24.732;2024-02-23T11:36:53;99427.50;;;15.56;59.02
8051;BME280;4068;42.158;24.732;2024-02-23T11:39:19;99435.63;;;15.73;59.25
8051;BME280;4068;42.158;24.732;2024-02-23T11:41:48;99434.44;;;15.67;57.83
8051;BME280;4068;42.158;24.732;2024-02-23T11:44:14;99407.00;;;15.57;57.53
8051;BME280;4068;42.158;24.732;2024-02-23T11:46:43;99419.97;;;15.78;56.72
8051;BME280;4068;42.158;24.732;2024-02-23T11:49:08;99425.03;;;15.81;56.83
8051;BME280;4068;42.158;24.732;2024-02-23T11:51:34;99422.22;;;15.91;57.37
8051;BME280;4068;42.158;24.732;2024-02-23T11:54:00;99416.53;;;15.94;57.18
8051;BME280;4068;42.158;24.732;2024-02-23T11:56:26;99420.63;;;16.14;56.56
8051;BME280;4068;42.158;24.732;2024-02-23T11:58:53;99415.22;;;15.98;56.15
8051;BME280;4068;42.158;24.732;2024-02-23T12:01:18;99397.50;;;15.97;56.05
8051;BME280;4068;42.158;24.732;2024-02-23T12:03:44;99409.88;;;15.98;56.22
8051;BME280;4068;42.158;24.732;2024-02-23T12:06:11;99409.03;;;15.97;56.66
8051;BME280;4068;42.158;24.732;2024-02-23T12:08:37;99402.06;;;16.13;56.41
8051;BME280;4068;42.158;24.732;2024-02-23T12:11:08;99391.41;;;16.29;56.79
8051;BME280;4068;42.158;24.732;2024-02-23T12:13:35;99388.25;;;16.42;55.12
8051;BME280;4068;42.158;24.732;2024-02-23T12:16:01;99364.81;;;16.28;55.77
8051;BME280;4068;42.158;24.732;2024-02-23T12:18:27;99376.38;;;16.45;55.84
8051;BME280;4068;42.158;24.732;2024-02-23T12:21:15;99379.41;;;16.58;55.33
8051;BME280;4068;42.158;24.732;2024-02-23T12:23:44;99378.56;;;16.49;55.64
8051;BME280;4068;42.158;24.732;2024-02-23T12:26:12;99378.06;;;16.62;55.27
8051;BME280;4068;42.158;24.732;2024-02-23T12:28:39;99353.59;;;16.24;55.97
8051;BME280;4068;42.158;24.732;2024-02-23T12:31:05;99366.84;;;16.42;56.11
8051;BME280;4068;42.158;24.732;2024-02-23T12:33:32;99353.78;;;16.47;56.12
8051;BME280;4068;42.158;24.732;2024-02-23T12:35:58;99350.28;;;16.55;55.77
8051;BME280;4068;42.158;24.732;2024-02-23T12:38:27;99359.81;;;16.74;55.33
8051;BME280;4068;42.158;24.732;2024-02-23T12:40:52;99349.59;;;16.53;54.70
8051;BME280;4068;42.158;24.732;2024-02-23T12:43:18;99348.91;;;16.34;54.88
8051;BME280;4068;42.158;24.732;2024-02-23T12:45:47;99339.41;;;16.40;54.60
8051;BME280;4068;42.158;24.732;2024-02-23T12:48:16;99328.34;;;16.51;54.63
8051;BME280;4068;42.158;24.732;2024-02-23T12:50:42;99347.94;;;16.68;54.05
8051;BME280;4068;42.158;24.732;2024-02-23T12:53:30;99334.88;;;16.57;53.92
8051;BME280;4068;42.158;24.732;2024-02-23T12:55:56;99334.88;;;16.82;53.49
8051;BME280;4068;42.158;24.732;2024-02-23T12:58:22;99329.19;;;16.85;53.39
8051;BME280;4068;42.158;24.732;2024-02-23T13:00:47;99323.31;;;16.81;53.53
8051;BME280;4068;42.158;24.732;2024-02-23T13:03:13;99324.50;;;16.87;53.62
8051;BME280;4068;42.158;24.732;2024-02-23T13:05:38;99328.50;;;16.83;53.29
8051;BME280;4068;42.158;24.732;2024-02-23T13:08:05;99315.47;;;16.80;53.78